SWR2EZ LSGG-LSZH
Flight info
| Callsign | SWR2EZ |
|---|---|
| Flight time | 0h 55m |
| Altitude | 19000 |
| Route | SOSA1J SOSAL N871 BERSU BERS2G |
| Aircraft | A320/M-SDE3FGHIRWY/LB1 |
Departure
| Time | 2026-05-05 18:30 |
|---|---|
| Airport | Geneva International Airport (LSGG) |
Arrival
| Time | 2026-05-05 19:25 |
|---|---|
| Airport | Zürich Airport (LSZH) |
| Time | Latitude | Longitude | Altitude | Speed | Heading |
|---|---|---|---|---|---|
| 2026-05-05 17:56 | 46.23103 | 6.10666 | 1397 ft | 0 kts | 135° |
| 2026-05-05 18:18 | 46.23104 | 6.10664 | 1393 ft | 2 kts | 134° |
| 2026-05-05 18:18 | 46.23120 | 6.10635 | 1406 ft | 4 kts | 111° |
| 2026-05-05 18:19 | 46.23123 | 6.10601 | 1404 ft | 4 kts | 65° |
| 2026-05-05 18:19 | 46.23115 | 6.10584 | 1399 ft | 1 kts | 45° |
| 2026-05-05 18:19 | 46.23114 | 6.10583 | 1399 ft | 0 kts | 45° |
| 2026-05-05 18:23 | 46.23137 | 6.10616 | 1401 ft | 6 kts | 45° |
| 2026-05-05 18:23 | 46.23174 | 6.10670 | 1393 ft | 8 kts | 45° |
| 2026-05-05 18:23 | 46.23212 | 6.10727 | 1396 ft | 8 kts | 46° |
| 2026-05-05 18:24 | 46.23253 | 6.10774 | 1393 ft | 8 kts | 22° |
| 2026-05-05 18:24 | 46.23319 | 6.10802 | 1398 ft | 10 kts | 20° |
| 2026-05-05 18:24 | 46.23370 | 6.10867 | 1395 ft | 11 kts | 45° |
| 2026-05-05 18:24 | 46.23419 | 6.10939 | 1393 ft | 9 kts | 45° |
| 2026-05-05 18:25 | 46.23462 | 6.11001 | 1393 ft | 8 kts | 45° |
| 2026-05-05 18:25 | 46.23488 | 6.11040 | 1397 ft | 9 kts | 46° |
| 2026-05-05 18:25 | 46.23551 | 6.11132 | 1393 ft | 9 kts | 45° |
| 2026-05-05 18:25 | 46.23599 | 6.11162 | 1394 ft | 8 kts | 339° |
| 2026-05-05 18:26 | 46.23640 | 6.11110 | 1392 ft | 9 kts | 315° |
| 2026-05-05 18:26 | 46.23696 | 6.11072 | 1388 ft | 11 kts | 22° |
| 2026-05-05 18:26 | 46.23763 | 6.11165 | 1380 ft | 16 kts | 45° |
| 2026-05-05 18:26 | 46.23842 | 6.11281 | 1374 ft | 16 kts | 45° |
| 2026-05-05 18:27 | 46.23925 | 6.11404 | 1375 ft | 20 kts | 46° |
| 2026-05-05 18:27 | 46.24036 | 6.11566 | 1370 ft | 25 kts | 45° |
| 2026-05-05 18:27 | 46.24168 | 6.11760 | 1365 ft | 29 kts | 45° |
| 2026-05-05 18:27 | 46.24318 | 6.11981 | 1363 ft | 31 kts | 46° |
| 2026-05-05 18:28 | 46.24616 | 6.12419 | 1369 ft | 32 kts | 45° |
| 2026-05-05 18:28 | 46.24748 | 6.12613 | 1362 ft | 17 kts | 45° |
| 2026-05-05 18:28 | 46.24841 | 6.12685 | 1364 ft | 14 kts | 19° |
| 2026-05-05 18:29 | 46.24919 | 6.12722 | 1365 ft | 10 kts | 17° |
| 2026-05-05 18:29 | 46.24973 | 6.12725 | 1368 ft | 8 kts | 334° |
| 2026-05-05 18:29 | 46.24990 | 6.12646 | 1371 ft | 8 kts | 252° |
| 2026-05-05 18:29 | 46.24921 | 6.12532 | 1372 ft | 32 kts | 225° |
| 2026-05-05 18:30 | 46.24578 | 6.12028 | 1372 ft | 105 kts | 225° |
| 2026-05-05 18:30 | 46.23927 | 6.11071 | 1409 ft | 157 kts | 225° |
| 2026-05-05 18:30 | 46.23170 | 6.09945 | 2052 ft | 155 kts | 225° |
| 2026-05-05 18:30 | 46.22412 | 6.08839 | 2852 ft | 154 kts | 224° |
| 2026-05-05 18:31 | 46.21658 | 6.07736 | 3562 ft | 155 kts | 230° |
| 2026-05-05 18:31 | 46.21280 | 6.06299 | 4242 ft | 159 kts | 268° |
| 2026-05-05 18:31 | 46.21619 | 6.04741 | 4809 ft | 178 kts | 301° |
| 2026-05-05 18:31 | 46.22721 | 6.03743 | 5291 ft | 203 kts | 347° |
| 2026-05-05 18:32 | 46.24174 | 6.04079 | 5770 ft | 225 kts | 22° |
| 2026-05-05 18:32 | 46.25447 | 6.05454 | 6359 ft | 234 kts | 55° |
| 2026-05-05 18:32 | 46.26321 | 6.07463 | 6895 ft | 246 kts | 62° |
| 2026-05-05 18:32 | 46.27177 | 6.09748 | 7287 ft | 271 kts | 65° |
| 2026-05-05 18:33 | 46.28071 | 6.12283 | 7786 ft | 294 kts | 65° |
| 2026-05-05 18:33 | 46.29017 | 6.14966 | 8592 ft | 303 kts | 65° |
| 2026-05-05 18:33 | 46.29996 | 6.17704 | 9528 ft | 309 kts | 64° |
| 2026-05-05 18:33 | 46.31011 | 6.20495 | 10244 ft | 323 kts | 64° |
| 2026-05-05 18:34 | 46.32100 | 6.23467 | 10669 ft | 344 kts | 63° |
| 2026-05-05 18:34 | 46.33239 | 6.26560 | 11434 ft | 351 kts | 63° |
| 2026-05-05 18:34 | 46.34397 | 6.29701 | 12303 ft | 357 kts | 63° |
| 2026-05-05 18:34 | 46.35555 | 6.32844 | 13116 ft | 360 kts | 63° |
| 2026-05-05 18:35 | 46.36741 | 6.36060 | 13744 ft | 364 kts | 63° |
| 2026-05-05 18:35 | 46.37936 | 6.39310 | 14115 ft | 366 kts | 63° |
| 2026-05-05 18:35 | 46.39134 | 6.42572 | 14357 ft | 367 kts | 63° |
| 2026-05-05 18:35 | 46.40333 | 6.45842 | 14487 ft | 369 kts | 63° |
| 2026-05-05 18:36 | 46.41539 | 6.49138 | 14733 ft | 373 kts | 63° |
| 2026-05-05 18:36 | 46.42755 | 6.52467 | 15551 ft | 375 kts | 64° |
| 2026-05-05 18:36 | 46.43979 | 6.55823 | 16322 ft | 378 kts | 64° |
| 2026-05-05 18:36 | 46.45215 | 6.59212 | 17075 ft | 382 kts | 64° |
| 2026-05-05 18:37 | 46.46463 | 6.62634 | 17821 ft | 386 kts | 64° |
| 2026-05-05 18:37 | 46.47724 | 6.66100 | 18493 ft | 391 kts | 64° |
| 2026-05-05 18:37 | 46.48997 | 6.69611 | 18885 ft | 393 kts | 64° |
| 2026-05-05 18:37 | 46.50272 | 6.73130 | 19126 ft | 394 kts | 64° |
| 2026-05-05 18:38 | 46.51548 | 6.76645 | 19366 ft | 394 kts | 64° |
| 2026-05-05 18:38 | 46.52827 | 6.80177 | 19620 ft | 395 kts | 64° |
| 2026-05-05 18:38 | 46.54103 | 6.83719 | 19835 ft | 397 kts | 64° |
| 2026-05-05 18:38 | 46.55386 | 6.87252 | 19881 ft | 389 kts | 62° |
| 2026-05-05 18:39 | 46.56900 | 6.90416 | 19905 ft | 377 kts | 52° |
| 2026-05-05 18:39 | 46.58550 | 6.93358 | 19904 ft | 374 kts | 52° |
| 2026-05-05 18:39 | 46.60186 | 6.96286 | 19903 ft | 372 kts | 52° |
| 2026-05-05 18:39 | 46.61813 | 6.99214 | 19908 ft | 372 kts | 52° |
| 2026-05-05 18:40 | 46.63439 | 7.02149 | 19905 ft | 372 kts | 52° |
| 2026-05-05 18:40 | 46.65062 | 7.05082 | 19903 ft | 372 kts | 52° |
| 2026-05-05 18:40 | 46.66684 | 7.08015 | 19904 ft | 372 kts | 52° |
| 2026-05-05 18:40 | 46.68309 | 7.10952 | 19904 ft | 372 kts | 52° |
| 2026-05-05 18:41 | 46.69933 | 7.13890 | 19904 ft | 372 kts | 52° |
| 2026-05-05 18:41 | 46.71557 | 7.16829 | 19908 ft | 372 kts | 52° |
| 2026-05-05 18:41 | 46.73180 | 7.19769 | 19905 ft | 372 kts | 52° |
| 2026-05-05 18:41 | 46.74801 | 7.22709 | 19913 ft | 372 kts | 52° |
| 2026-05-05 18:42 | 46.76423 | 7.25652 | 19912 ft | 372 kts | 52° |
| 2026-05-05 18:42 | 46.78042 | 7.28593 | 19905 ft | 372 kts | 52° |
| 2026-05-05 18:42 | 46.79664 | 7.31544 | 19901 ft | 372 kts | 52° |
| 2026-05-05 18:42 | 46.81279 | 7.34496 | 19891 ft | 372 kts | 52° |
| 2026-05-05 18:43 | 46.82890 | 7.37448 | 19880 ft | 372 kts | 52° |
| 2026-05-05 18:43 | 46.84502 | 7.40401 | 19882 ft | 372 kts | 52° |
| 2026-05-05 18:43 | 46.86113 | 7.43349 | 19885 ft | 372 kts | 52° |
| 2026-05-05 18:43 | 46.87724 | 7.46303 | 19888 ft | 371 kts | 52° |
| 2026-05-05 18:44 | 46.89329 | 7.49255 | 19888 ft | 371 kts | 52° |
| 2026-05-05 18:44 | 46.90934 | 7.52214 | 19916 ft | 371 kts | 52° |
| 2026-05-05 18:44 | 46.92538 | 7.55174 | 19922 ft | 371 kts | 52° |
| 2026-05-05 18:44 | 46.94141 | 7.58131 | 19928 ft | 371 kts | 52° |
| 2026-05-05 18:45 | 46.95751 | 7.61098 | 19928 ft | 378 kts | 52° |
| 2026-05-05 18:45 | 46.97424 | 7.64186 | 19923 ft | 392 kts | 52° |
| 2026-05-05 18:45 | 46.99129 | 7.67338 | 19921 ft | 396 kts | 52° |
| 2026-05-05 18:45 | 47.00839 | 7.70503 | 19921 ft | 397 kts | 52° |
| 2026-05-05 18:46 | 47.02552 | 7.73677 | 19925 ft | 397 kts | 52° |
| 2026-05-05 18:46 | 47.04266 | 7.76852 | 19926 ft | 397 kts | 52° |
| 2026-05-05 18:46 | 47.05980 | 7.80028 | 19925 ft | 397 kts | 52° |
| 2026-05-05 18:46 | 47.07691 | 7.83204 | 19925 ft | 397 kts | 52° |
| 2026-05-05 18:47 | 47.09401 | 7.86384 | 19923 ft | 397 kts | 52° |
| 2026-05-05 18:47 | 47.11109 | 7.89569 | 19922 ft | 397 kts | 52° |
| 2026-05-05 18:47 | 47.12809 | 7.92759 | 19929 ft | 397 kts | 54° |
| 2026-05-05 18:47 | 47.14223 | 7.96212 | 19924 ft | 390 kts | 66° |
| 2026-05-05 18:48 | 47.15363 | 7.99749 | 19827 ft | 377 kts | 66° |
| 2026-05-05 18:48 | 47.16465 | 8.03180 | 19697 ft | 365 kts | 66° |
| 2026-05-05 18:48 | 47.17531 | 8.06513 | 19483 ft | 357 kts | 66° |
| 2026-05-05 18:48 | 47.18580 | 8.09802 | 19144 ft | 354 kts | 66° |
| 2026-05-05 18:49 | 47.19615 | 8.13064 | 18783 ft | 351 kts | 66° |
| 2026-05-05 18:49 | 47.20643 | 8.16313 | 18430 ft | 349 kts | 66° |
| 2026-05-05 18:49 | 47.21910 | 8.19335 | 18061 ft | 348 kts | 45° |
| 2026-05-05 18:49 | 47.23889 | 8.21281 | 17663 ft | 342 kts | 17° |
| 2026-05-05 18:50 | 47.26200 | 8.21715 | 17234 ft | 332 kts | 349° |
| 2026-05-05 18:50 | 47.28356 | 8.20702 | 16813 ft | 323 kts | 329° |
| 2026-05-05 18:50 | 47.30366 | 8.19227 | 16464 ft | 323 kts | 328° |
| 2026-05-05 18:50 | 47.32367 | 8.17730 | 16315 ft | 323 kts | 328° |
| 2026-05-05 18:51 | 47.34367 | 8.16221 | 16187 ft | 323 kts | 328° |
| 2026-05-05 18:51 | 47.36369 | 8.14708 | 16041 ft | 323 kts | 328° |
| 2026-05-05 18:51 | 47.38372 | 8.13199 | 15849 ft | 323 kts | 328° |
| 2026-05-05 18:51 | 47.40365 | 8.11703 | 15594 ft | 321 kts | 328° |
| 2026-05-05 18:52 | 47.42356 | 8.10211 | 15347 ft | 320 kts | 328° |
| 2026-05-05 18:52 | 47.44334 | 8.08732 | 15094 ft | 317 kts | 328° |
| 2026-05-05 18:52 | 47.46285 | 8.07263 | 14845 ft | 311 kts | 326° |
| 2026-05-05 18:52 | 47.47971 | 8.05381 | 14601 ft | 298 kts | 308° |
| 2026-05-05 18:53 | 47.49125 | 8.02975 | 14361 ft | 286 kts | 291° |
| 2026-05-05 18:53 | 47.49734 | 8.00254 | 14117 ft | 275 kts | 275° |
| 2026-05-05 18:53 | 47.49789 | 7.97484 | 13875 ft | 266 kts | 260° |
| 2026-05-05 18:53 | 47.49504 | 7.94803 | 13617 ft | 262 kts | 258° |
| 2026-05-05 18:54 | 47.49206 | 7.92159 | 13356 ft | 259 kts | 257° |
| 2026-05-05 18:54 | 47.48911 | 7.89548 | 13089 ft | 256 kts | 257° |
| 2026-05-05 18:54 | 47.48447 | 7.87055 | 12910 ft | 247 kts | 244° |
| 2026-05-05 18:54 | 47.47577 | 7.84960 | 12878 ft | 234 kts | 230° |
| 2026-05-05 18:55 | 47.46406 | 7.83388 | 12888 ft | 223 kts | 215° |
| 2026-05-05 18:55 | 47.45019 | 7.82383 | 12769 ft | 223 kts | 200° |
| 2026-05-05 18:55 | 47.43485 | 7.81977 | 12649 ft | 226 kts | 186° |
| 2026-05-05 18:55 | 47.41906 | 7.82214 | 12501 ft | 232 kts | 171° |
| 2026-05-05 18:56 | 47.40396 | 7.83123 | 12384 ft | 239 kts | 154° |
| 2026-05-05 18:56 | 47.39093 | 7.84699 | 12253 ft | 247 kts | 137° |
| 2026-05-05 18:56 | 47.38376 | 7.86094 | 12176 ft | 263 kts | 132° |
| 2026-05-05 18:56 | 47.37278 | 7.88261 | 12045 ft | 261 kts | 133° |
| 2026-05-05 18:57 | 47.36194 | 7.90364 | 11934 ft | 253 kts | 134° |
| 2026-05-05 18:57 | 47.35207 | 7.92460 | 11913 ft | 254 kts | 121° |
| 2026-05-05 18:57 | 47.34769 | 7.95019 | 11918 ft | 266 kts | 93° |
| 2026-05-05 18:57 | 47.35193 | 7.97669 | 11917 ft | 270 kts | 62° |
| 2026-05-05 18:58 | 47.36428 | 7.99717 | 11914 ft | 269 kts | 30° |
| 2026-05-05 18:58 | 47.38140 | 8.00693 | 11916 ft | 263 kts | 6° |
| 2026-05-05 18:58 | 47.39943 | 8.01184 | 11916 ft | 264 kts | 6° |
| 2026-05-05 18:58 | 47.41771 | 8.01678 | 11915 ft | 264 kts | 6° |
| 2026-05-05 18:59 | 47.43557 | 8.02161 | 11913 ft | 264 kts | 6° |
| 2026-05-05 18:59 | 47.45368 | 8.02543 | 11910 ft | 260 kts | 353° |
| 2026-05-05 18:59 | 47.47085 | 8.02022 | 11909 ft | 248 kts | 328° |
| 2026-05-05 18:59 | 47.48459 | 8.00604 | 11906 ft | 237 kts | 305° |
| 2026-05-05 19:00 | 47.49321 | 7.98613 | 11902 ft | 227 kts | 284° |
| 2026-05-05 19:00 | 47.49613 | 7.96379 | 11905 ft | 219 kts | 264° |
| 2026-05-05 19:00 | 47.49399 | 7.94180 | 11903 ft | 216 kts | 256° |
| 2026-05-05 19:00 | 47.49137 | 7.91995 | 11900 ft | 216 kts | 257° |
| 2026-05-05 19:01 | 47.48800 | 7.89841 | 11897 ft | 214 kts | 246° |
| 2026-05-05 19:01 | 47.48044 | 7.87967 | 11894 ft | 213 kts | 227° |
| 2026-05-05 19:01 | 47.46877 | 7.86625 | 11894 ft | 215 kts | 208° |
| 2026-05-05 19:01 | 47.45428 | 7.86015 | 11894 ft | 221 kts | 188° |
| 2026-05-05 19:02 | 47.43876 | 7.86287 | 11899 ft | 231 kts | 166° |
| 2026-05-05 19:02 | 47.42463 | 7.87492 | 11900 ft | 242 kts | 143° |
| 2026-05-05 19:02 | 47.41460 | 7.89532 | 11904 ft | 254 kts | 117° |
| 2026-05-05 19:02 | 47.41122 | 7.92123 | 11907 ft | 264 kts | 90° |
| 2026-05-05 19:03 | 47.41617 | 7.94748 | 11906 ft | 270 kts | 60° |
| 2026-05-05 19:03 | 47.42871 | 7.96770 | 11908 ft | 268 kts | 30° |
| 2026-05-05 19:03 | 47.44579 | 7.97770 | 11910 ft | 264 kts | 7° |
| 2026-05-05 19:03 | 47.46379 | 7.98317 | 11907 ft | 264 kts | 6° |
| 2026-05-05 19:04 | 47.48165 | 7.98978 | 11898 ft | 268 kts | 22° |
| 2026-05-05 19:04 | 47.49647 | 8.00636 | 11906 ft | 271 kts | 53° |
| 2026-05-05 19:04 | 47.50438 | 8.03122 | 11912 ft | 267 kts | 82° |
| 2026-05-05 19:04 | 47.50554 | 8.05826 | 11910 ft | 261 kts | 105° |
| 2026-05-05 19:05 | 47.49954 | 8.08277 | 11910 ft | 250 kts | 130° |
| 2026-05-05 19:05 | 47.48787 | 8.10068 | 11910 ft | 237 kts | 155° |
| 2026-05-05 19:05 | 47.47309 | 8.10990 | 11909 ft | 227 kts | 176° |
| 2026-05-05 19:05 | 47.45773 | 8.11016 | 11911 ft | 218 kts | 196° |
| 2026-05-05 19:06 | 47.44380 | 8.10239 | 11908 ft | 213 kts | 215° |
| 2026-05-05 19:06 | 47.43269 | 8.08799 | 11712 ft | 213 kts | 233° |
| 2026-05-05 19:06 | 47.42594 | 8.06905 | 11456 ft | 213 kts | 251° |
| 2026-05-05 19:06 | 47.42254 | 8.04776 | 11211 ft | 213 kts | 256° |
| 2026-05-05 19:07 | 47.42004 | 8.02624 | 10970 ft | 212 kts | 257° |
| 2026-05-05 19:07 | 47.41776 | 8.00446 | 10707 ft | 211 kts | 258° |
| 2026-05-05 19:07 | 47.41558 | 7.98328 | 10464 ft | 211 kts | 257° |
| 2026-05-05 19:07 | 47.41334 | 7.96193 | 10224 ft | 211 kts | 257° |
| 2026-05-05 19:08 | 47.41211 | 7.94003 | 9989 ft | 212 kts | 269° |
| 2026-05-05 19:08 | 47.41543 | 7.91862 | 9906 ft | 219 kts | 287° |
| 2026-05-05 19:08 | 47.42394 | 7.89997 | 9901 ft | 230 kts | 312° |
| 2026-05-05 19:08 | 47.43908 | 7.88882 | 9909 ft | 262 kts | 343° |
| 2026-05-05 19:09 | 47.45777 | 7.88978 | 9901 ft | 278 kts | 14° |
| 2026-05-05 19:09 | 47.47470 | 7.90381 | 9906 ft | 284 kts | 44° |
| 2026-05-05 19:09 | 47.48563 | 7.92777 | 9895 ft | 282 kts | 73° |
| 2026-05-05 19:09 | 47.48811 | 7.95595 | 9906 ft | 276 kts | 99° |
| 2026-05-05 19:10 | 47.48605 | 7.98408 | 9908 ft | 275 kts | 103° |
| 2026-05-05 19:10 | 47.48340 | 8.01202 | 9910 ft | 274 kts | 103° |
| 2026-05-05 19:10 | 47.48067 | 8.03997 | 9911 ft | 274 kts | 103° |
| 2026-05-05 19:10 | 47.47788 | 8.06827 | 9912 ft | 275 kts | 103° |
| 2026-05-05 19:11 | 47.47444 | 8.09549 | 9904 ft | 270 kts | 115° |
| 2026-05-05 19:11 | 47.46697 | 8.12060 | 9910 ft | 266 kts | 122° |
| 2026-05-05 19:11 | 47.45858 | 8.14496 | 9908 ft | 266 kts | 123° |
| 2026-05-05 19:11 | 47.45009 | 8.16922 | 9909 ft | 265 kts | 123° |
| 2026-05-05 19:12 | 47.44160 | 8.19335 | 9915 ft | 265 kts | 123° |
| 2026-05-05 19:12 | 47.43310 | 8.21747 | 9911 ft | 265 kts | 123° |
| 2026-05-05 19:12 | 47.42459 | 8.24163 | 9912 ft | 265 kts | 123° |
| 2026-05-05 19:12 | 47.41609 | 8.26577 | 9916 ft | 265 kts | 123° |
| 2026-05-05 19:13 | 47.40759 | 8.28989 | 9911 ft | 265 kts | 123° |
| 2026-05-05 19:13 | 47.39905 | 8.31405 | 9912 ft | 265 kts | 123° |
| 2026-05-05 19:13 | 47.39047 | 8.33817 | 9909 ft | 264 kts | 123° |
| 2026-05-05 19:13 | 47.38165 | 8.36179 | 9913 ft | 262 kts | 123° |
| 2026-05-05 19:14 | 47.37276 | 8.38527 | 9914 ft | 262 kts | 123° |
| 2026-05-05 19:14 | 47.36387 | 8.40873 | 9914 ft | 262 kts | 123° |
| 2026-05-05 19:14 | 47.35648 | 8.43343 | 9915 ft | 267 kts | 106° |
| 2026-05-05 19:14 | 47.35379 | 8.46063 | 9896 ft | 270 kts | 99° |
| 2026-05-05 19:15 | 47.35195 | 8.48802 | 9896 ft | 270 kts | 99° |
| 2026-05-05 19:15 | 47.35021 | 8.51556 | 9890 ft | 270 kts | 99° |
| 2026-05-05 19:15 | 47.34850 | 8.54307 | 9894 ft | 270 kts | 98° |
| 2026-05-05 19:15 | 47.34679 | 8.57063 | 9880 ft | 269 kts | 98° |
| 2026-05-05 19:16 | 47.34509 | 8.59803 | 9600 ft | 268 kts | 98° |
| 2026-05-05 19:16 | 47.34340 | 8.62531 | 9249 ft | 267 kts | 98° |
| 2026-05-05 19:16 | 47.34168 | 8.65252 | 8901 ft | 266 kts | 98° |
| 2026-05-05 19:16 | 47.33991 | 8.67962 | 8549 ft | 265 kts | 98° |
| 2026-05-05 19:17 | 47.33813 | 8.70664 | 8177 ft | 265 kts | 98° |
| 2026-05-05 19:17 | 47.33634 | 8.73359 | 7824 ft | 264 kts | 98° |
| 2026-05-05 19:17 | 47.33639 | 8.76024 | 7635 ft | 257 kts | 79° |
| 2026-05-05 19:17 | 47.34073 | 8.78520 | 7507 ft | 246 kts | 74° |
| 2026-05-05 19:18 | 47.34555 | 8.80886 | 7383 ft | 236 kts | 74° |
| 2026-05-05 19:18 | 47.35032 | 8.83191 | 7071 ft | 236 kts | 73° |
| 2026-05-05 19:18 | 47.35504 | 8.85487 | 6861 ft | 232 kts | 73° |
| 2026-05-05 19:18 | 47.36106 | 8.87705 | 6607 ft | 232 kts | 53° |
| 2026-05-05 19:19 | 47.37305 | 8.89177 | 6374 ft | 223 kts | 18° |
| 2026-05-05 19:19 | 47.38784 | 8.89727 | 6120 ft | 217 kts | 6° |
| 2026-05-05 19:19 | 47.40265 | 8.90060 | 5878 ft | 214 kts | 4° |
| 2026-05-05 19:19 | 47.41725 | 8.90164 | 5679 ft | 205 kts | 342° |
| 2026-05-05 19:20 | 47.42898 | 8.89193 | 5536 ft | 189 kts | 306° |
| 2026-05-05 19:20 | 47.43434 | 8.87499 | 5459 ft | 182 kts | 275° |
| 2026-05-05 19:20 | 47.43578 | 8.85637 | 5396 ft | 183 kts | 275° |
| 2026-05-05 19:20 | 47.43716 | 8.83776 | 5328 ft | 182 kts | 274° |
| 2026-05-05 19:21 | 47.43856 | 8.81926 | 5074 ft | 181 kts | 275° |
| 2026-05-05 19:21 | 47.44008 | 8.80084 | 4723 ft | 181 kts | 275° |
| 2026-05-05 19:21 | 47.44132 | 8.78283 | 4537 ft | 172 kts | 274° |
| 2026-05-05 19:21 | 47.44245 | 8.76552 | 4338 ft | 165 kts | 272° |
| 2026-05-05 19:22 | 47.44356 | 8.74894 | 4080 ft | 161 kts | 273° |
| 2026-05-05 19:22 | 47.44479 | 8.73272 | 3851 ft | 158 kts | 273° |
| 2026-05-05 19:22 | 47.44588 | 8.71667 | 3644 ft | 156 kts | 272° |
| 2026-05-05 19:22 | 47.44702 | 8.70064 | 3393 ft | 157 kts | 274° |
| 2026-05-05 19:23 | 47.44830 | 8.68473 | 3152 ft | 152 kts | 274° |
| 2026-05-05 19:23 | 47.44946 | 8.66963 | 2918 ft | 144 kts | 273° |
| 2026-05-05 19:23 | 47.45052 | 8.65512 | 2700 ft | 140 kts | 273° |
| 2026-05-05 19:23 | 47.45153 | 8.64076 | 2504 ft | 141 kts | 274° |
| 2026-05-05 19:24 | 47.45257 | 8.62636 | 2313 ft | 142 kts | 274° |
| 2026-05-05 19:24 | 47.45348 | 8.61182 | 2096 ft | 143 kts | 272° |
| 2026-05-05 19:24 | 47.45459 | 8.59719 | 1868 ft | 144 kts | 274° |
| 2026-05-05 19:24 | 47.45573 | 8.58252 | 1633 ft | 144 kts | 273° |
| 2026-05-05 19:25 | 47.45681 | 8.56779 | 1422 ft | 144 kts | 272° |
| 2026-05-05 19:25 | 47.45768 | 8.55495 | 1395 ft | 92 kts | 276° |
| 2026-05-05 19:25 | 47.45809 | 8.54953 | 1394 ft | 26 kts | 275° |
| 2026-05-05 19:25 | 47.45805 | 8.54831 | 1405 ft | 8 kts | 229° |
| 2026-05-05 19:26 | 47.45752 | 8.54846 | 1397 ft | 11 kts | 153° |
| 2026-05-05 19:26 | 47.45680 | 8.54896 | 1403 ft | 8 kts | 155° |
| 2026-05-05 19:26 | 47.45645 | 8.54920 | 1406 ft | 5 kts | 155° |
| 2026-05-05 19:26 | 47.45579 | 8.54965 | 1407 ft | 15 kts | 155° |
| 2026-05-05 19:27 | 47.45482 | 8.55047 | 1406 ft | 16 kts | 142° |
| 2026-05-05 19:27 | 47.45417 | 8.55188 | 1405 ft | 18 kts | 121° |
| 2026-05-05 19:27 | 47.45372 | 8.55305 | 1409 ft | 8 kts | 114° |
| 2026-05-05 19:27 | 47.45403 | 8.55365 | 1400 ft | 7 kts | 28° |
| 2026-05-05 19:28 | 47.45413 | 8.55373 | 1399 ft | 1 kts | 27° |
| 2026-05-05 19:28 | 47.45442 | 8.55394 | 1400 ft | 7 kts | 25° |
| 2026-05-05 19:28 | 47.45482 | 8.55423 | 1402 ft | 6 kts | 26° |
| 2026-05-05 19:28 | 47.45524 | 8.55473 | 1400 ft | 9 kts | 67° |
| 2026-05-05 19:29 | 47.45521 | 8.55554 | 1397 ft | 7 kts | 96° |
| 2026-05-05 19:29 | 47.45517 | 8.55625 | 1402 ft | 6 kts | 96° |
| 2026-05-05 19:29 | 47.45511 | 8.55708 | 1397 ft | 10 kts | 95° |
| 2026-05-05 19:29 | 47.45503 | 8.55806 | 1405 ft | 9 kts | 96° |
| 2026-05-05 19:30 | 47.45497 | 8.55892 | 1397 ft | 8 kts | 96° |